sensor_id;sensor_type;location;lat;lon;timestamp;P1;durP1;ratioP1;P2;durP2;ratioP2
25988;SDS011;13778;48.236;9.894;2023-07-13T00:02:46;12.35;;;10.70;;
25988;SDS011;13778;48.236;9.894;2023-07-13T00:05:38;15.68;;;11.60;;
25988;SDS011;13778;48.236;9.894;2023-07-13T00:11:19;21.80;;;11.07;;
25988;SDS011;13778;48.236;9.894;2023-07-13T00:14:10;23.10;;;11.35;;
25988;SDS011;13778;48.236;9.894;2023-07-13T00:17:00;14.97;;;10.23;;
25988;SDS011;13778;48.236;9.894;2023-07-13T00:19:51;25.30;;;10.30;;
25988;SDS011;13778;48.236;9.894;2023-07-13T00:22:43;16.05;;;10.68;;
25988;SDS011;13778;48.236;9.894;2023-07-13T00:25:33;19.63;;;10.00;;
25988;SDS011;13778;48.236;9.894;2023-07-13T00:28:24;14.77;;;8.68;;
25988;SDS011;13778;48.236;9.894;2023-07-13T00:31:14;8.73;;;6.20;;
25988;SDS011;13778;48.236;9.894;2023-07-13T00:34:05;10.70;;;5.85;;
25988;SDS011;13778;48.236;9.894;2023-07-13T00:36:55;12.10;;;6.30;;
25988;SDS011;13778;48.236;9.894;2023-07-13T00:39:47;12.82;;;5.13;;
25988;SDS011;13778;48.236;9.894;2023-07-13T00:42:38;8.27;;;5.40;;
25988;SDS011;13778;48.236;9.894;2023-07-13T00:48:37;8.90;;;5.43;;
25988;SDS011;13778;48.236;9.894;2023-07-13T00:51:32;9.95;;;4.63;;
25988;SDS011;13778;48.236;9.894;2023-07-13T00:54:30;10.65;;;5.03;;
25988;SDS011;13778;48.236;9.894;2023-07-13T00:57:23;10.27;;;4.38;;
25988;SDS011;13778;48.236;9.894;2023-07-13T01:00:13;7.20;;;4.40;;
25988;SDS011;13778;48.236;9.894;2023-07-13T01:03:04;5.50;;;3.72;;
25988;SDS011;13778;48.236;9.894;2023-07-13T01:05:55;6.00;;;3.25;;
25988;SDS011;13778;48.236;9.894;2023-07-13T01:08:45;9.68;;;3.50;;
25988;SDS011;13778;48.236;9.894;2023-07-13T01:11:36;12.68;;;3.80;;
25988;SDS011;13778;48.236;9.894;2023-07-13T01:14:28;8.52;;;4.25;;
25988;SDS011;13778;48.236;9.894;2023-07-13T01:17:18;12.98;;;4.25;;
25988;SDS011;13778;48.236;9.894;2023-07-13T01:20:08;7.90;;;3.45;;
25988;SDS011;13778;48.236;9.894;2023-07-13T01:23:00;13.82;;;3.60;;
25988;SDS011;13778;48.236;9.894;2023-07-13T01:25:51;9.95;;;3.90;;
25988;SDS011;13778;48.236;9.894;2023-07-13T01:28:41;7.18;;;4.00;;
25988;SDS011;13778;48.236;9.894;2023-07-13T01:31:31;6.78;;;3.90;;
25988;SDS011;13778;48.236;9.894;2023-07-13T01:34:22;8.10;;;3.65;;
25988;SDS011;13778;48.236;9.894;2023-07-13T01:37:13;5.15;;;3.25;;
25988;SDS011;13778;48.236;9.894;2023-07-13T01:40:05;6.05;;;3.88;;
25988;SDS011;13778;48.236;9.894;2023-07-13T01:42:58;9.20;;;3.58;;
25988;SDS011;13778;48.236;9.894;2023-07-13T01:45:48;11.15;;;3.85;;
25988;SDS011;13778;48.236;9.894;2023-07-13T01:48:38;8.43;;;3.65;;
25988;SDS011;13778;48.236;9.894;2023-07-13T01:51:29;9.65;;;4.07;;
25988;SDS011;13778;48.236;9.894;2023-07-13T01:54:19;9.40;;;3.70;;
25988;SDS011;13778;48.236;9.894;2023-07-13T01:57:11;7.10;;;3.75;;
25988;SDS011;13778;48.236;9.894;2023-07-13T02:00:02;9.82;;;4.25;;
25988;SDS011;13778;48.236;9.894;2023-07-13T02:02:54;6.65;;;3.90;;
25988;SDS011;13778;48.236;9.894;2023-07-13T02:05:44;6.32;;;3.90;;
25988;SDS011;13778;48.236;9.894;2023-07-13T02:08:34;5.32;;;3.65;;
25988;SDS011;13778;48.236;9.894;2023-07-13T02:11:25;8.23;;;3.67;;
25988;SDS011;13778;48.236;9.894;2023-07-13T02:14:22;6.57;;;3.88;;
25988;SDS011;13778;48.236;9.894;2023-07-13T02:20:03;8.52;;;4.35;;
25988;SDS011;13778;48.236;9.894;2023-07-13T02:22:53;8.45;;;3.92;;
25988;SDS011;13778;48.236;9.894;2023-07-13T02:25:45;11.23;;;4.45;;
25988;SDS011;13778;48.236;9.894;2023-07-13T02:28:35;5.43;;;3.95;;
25988;SDS011;13778;48.236;9.894;2023-07-13T02:31:27;5.43;;;4.00;;
25988;SDS011;13778;48.236;9.894;2023-07-13T02:37:08;8.50;;;4.00;;
25988;SDS011;13778;48.236;9.894;2023-07-13T02:39:58;12.02;;;3.80;;
25988;SDS011;13778;48.236;9.894;2023-07-13T02:42:49;14.38;;;4.85;;
25988;SDS011;13778;48.236;9.894;2023-07-13T02:45:43;13.95;;;4.45;;
25988;SDS011;13778;48.236;9.894;2023-07-13T02:52:02;7.57;;;4.00;;
25988;SDS011;13778;48.236;9.894;2023-07-13T02:54:52;7.63;;;3.17;;
25988;SDS011;13778;48.236;9.894;2023-07-13T02:57:43;12.90;;;3.88;;
25988;SDS011;13778;48.236;9.894;2023-07-13T03:00:33;5.18;;;3.78;;
25988;SDS011;13778;48.236;9.894;2023-07-13T03:03:23;11.27;;;3.33;;
25988;SDS011;13778;48.236;9.894;2023-07-13T03:06:14;8.38;;;3.30;;
25988;SDS011;13778;48.236;9.894;2023-07-13T03:09:07;8.18;;;3.35;;
25988;SDS011;13778;48.236;9.894;2023-07-13T03:11:57;6.47;;;3.38;;
25988;SDS011;13778;48.236;9.894;2023-07-13T03:14:48;10.20;;;3.60;;
25988;SDS011;13778;48.236;9.894;2023-07-13T03:17:38;6.18;;;3.80;;
25988;SDS011;13778;48.236;9.894;2023-07-13T03:20:31;8.98;;;3.80;;
25988;SDS011;13778;48.236;9.894;2023-07-13T03:23:22;8.05;;;3.17;;
25988;SDS011;13778;48.236;9.894;2023-07-13T03:26:15;9.23;;;3.65;;
25988;SDS011;13778;48.236;9.894;2023-07-13T03:29:06;4.88;;;3.60;;
25988;SDS011;13778;48.236;9.894;2023-07-13T03:31:57;9.85;;;3.90;;
25988;SDS011;13778;48.236;9.894;2023-07-13T03:34:47;7.25;;;3.80;;
25988;SDS011;13778;48.236;9.894;2023-07-13T03:37:38;9.80;;;3.33;;
25988;SDS011;13778;48.236;9.894;2023-07-13T03:40:31;3.95;;;3.22;;
25988;SDS011;13778;48.236;9.894;2023-07-13T03:43:24;5.43;;;3.17;;
25988;SDS011;13778;48.236;9.894;2023-07-13T03:46:14;8.75;;;3.47;;
25988;SDS011;13778;48.236;9.894;2023-07-13T03:49:05;11.60;;;3.58;;
25988;SDS011;13778;48.236;9.894;2023-07-13T03:51:55;5.00;;;2.90;;
25988;SDS011;13778;48.236;9.894;2023-07-13T03:54:45;8.18;;;3.33;;
25988;SDS011;13778;48.236;9.894;2023-07-13T03:57:36;11.70;;;3.13;;
25988;SDS011;13778;48.236;9.894;2023-07-13T04:00:28;10.23;;;3.50;;
25988;SDS011;13778;48.236;9.894;2023-07-13T04:03:18;13.18;;;4.43;;
25988;SDS011;13778;48.236;9.894;2023-07-13T04:06:12;15.82;;;4.45;;
25988;SDS011;13778;48.236;9.894;2023-07-13T04:09:04;11.82;;;4.20;;
25988;SDS011;13778;48.236;9.894;2023-07-13T04:11:55;10.02;;;3.35;;
25988;SDS011;13778;48.236;9.894;2023-07-13T04:14:45;15.25;;;3.78;;
25988;SDS011;13778;48.236;9.894;2023-07-13T04:17:37;9.65;;;3.63;;
25988;SDS011;13778;48.236;9.894;2023-07-13T04:23:18;9.30;;;3.72;;
25988;SDS011;13778;48.236;9.894;2023-07-13T04:26:08;7.15;;;3.22;;
25988;SDS011;13778;48.236;9.894;2023-07-13T04:28:59;12.93;;;3.65;;
25988;SDS011;13778;48.236;9.894;2023-07-13T04:31:49;9.40;;;3.83;;
25988;SDS011;13778;48.236;9.894;2023-07-13T04:34:41;8.25;;;3.28;;
25988;SDS011;13778;48.236;9.894;2023-07-13T04:37:32;6.32;;;3.67;;
25988;SDS011;13778;48.236;9.894;2023-07-13T04:40:22;9.55;;;3.63;;
25988;SDS011;13778;48.236;9.894;2023-07-13T04:43:12;4.13;;;3.00;;
25988;SDS011;13778;48.236;9.894;2023-07-13T04:46:03;11.43;;;3.58;;
25988;SDS011;13778;48.236;9.894;2023-07-13T04:48:54;7.38;;;3.42;;
25988;SDS011;13778;48.236;9.894;2023-07-13T04:51:47;6.00;;;3.45;;
25988;SDS011;13778;48.236;9.894;2023-07-13T04:54:37;6.65;;;3.42;;
25988;SDS011;13778;48.236;9.894;2023-07-13T04:57:28;11.93;;;3.60;;
25988;SDS011;13778;48.236;9.894;2023-07-13T05:00:18;6.85;;;3.60;;
25988;SDS011;13778;48.236;9.894;2023-07-13T05:03:09;8.10;;;3.33;;
25988;SDS011;13778;48.236;9.894;2023-07-13T05:06:02;12.40;;;4.15;;
25988;SDS011;13778;48.236;9.894;2023-07-13T05:08:53;10.80;;;3.63;;
25988;SDS011;13778;48.236;9.894;2023-07-13T05:11:44;7.68;;;3.03;;
25988;SDS011;13778;48.236;9.894;2023-07-13T05:14:34;11.07;;;3.47;;
25988;SDS011;13778;48.236;9.894;2023-07-13T05:17:25;9.23;;;3.55;;
25988;SDS011;13778;48.236;9.894;2023-07-13T05:20:15;11.95;;;3.25;;
25988;SDS011;13778;48.236;9.894;2023-07-13T05:23:06;14.57;;;3.50;;
25988;SDS011;13778;48.236;9.894;2023-07-13T05:25:58;12.15;;;3.72;;
25988;SDS011;13778;48.236;9.894;2023-07-13T05:28:48;9.73;;;3.38;;
25988;SDS011;13778;48.236;9.894;2023-07-13T05:31:38;10.13;;;3.38;;
25988;SDS011;13778;48.236;9.894;2023-07-13T05:34:28;11.00;;;3.15;;
25988;SDS011;13778;48.236;9.894;2023-07-13T05:37:19;7.05;;;3.22;;
25988;SDS011;13778;48.236;9.894;2023-07-13T05:40:09;5.20;;;2.92;;
25988;SDS011;13778;48.236;9.894;2023-07-13T05:43:01;8.18;;;3.72;;
25988;SDS011;13778;48.236;9.894;2023-07-13T05:48:41;9.40;;;3.15;;
25988;SDS011;13778;48.236;9.894;2023-07-13T05:51:32;5.07;;;3.00;;
25988;SDS011;13778;48.236;9.894;2023-07-13T05:54:22;11.75;;;3.40;;
25988;SDS011;13778;48.236;9.894;2023-07-13T05:57:12;5.57;;;2.92;;
25988;SDS011;13778;48.236;9.894;2023-07-13T06:00:05;4.53;;;2.65;;
25988;SDS011;13778;48.236;9.894;2023-07-13T06:02:56;7.30;;;3.08;;
25988;SDS011;13778;48.236;9.894;2023-07-13T06:05:47;13.13;;;3.22;;
25988;SDS011;13778;48.236;9.894;2023-07-13T06:08:38;11.57;;;3.60;;
25988;SDS011;13778;48.236;9.894;2023-07-13T06:11:28;8.75;;;3.10;;
25988;SDS011;13778;48.236;9.894;2023-07-13T06:14:19;7.95;;;2.40;;
25988;SDS011;13778;48.236;9.894;2023-07-13T06:17:11;9.43;;;3.15;;
25988;SDS011;13778;48.236;9.894;2023-07-13T06:22:52;5.05;;;2.30;;
25988;SDS011;13778;48.236;9.894;2023-07-13T06:25:42;6.18;;;2.17;;
25988;SDS011;13778;48.236;9.894;2023-07-13T06:28:33;3.37;;;1.97;;
25988;SDS011;13778;48.236;9.894;2023-07-13T06:31:24;6.53;;;2.30;;
25988;SDS011;13778;48.236;9.894;2023-07-13T06:34:15;9.80;;;2.28;;
25988;SDS011;13778;48.236;9.894;2023-07-13T06:39:56;4.43;;;1.92;;
25988;SDS011;13778;48.236;9.894;2023-07-13T06:42:46;5.05;;;1.90;;
25988;SDS011;13778;48.236;9.894;2023-07-13T06:45:40;6.47;;;2.30;;
25988;SDS011;13778;48.236;9.894;2023-07-13T06:48:30;4.60;;;2.72;;
25988;SDS011;13778;48.236;9.894;2023-07-13T06:51:22;9.98;;;2.67;;
25988;SDS011;13778;48.236;9.894;2023-07-13T06:54:13;8.65;;;2.35;;
25988;SDS011;13778;48.236;9.894;2023-07-13T06:57:03;5.53;;;2.05;;
25988;SDS011;13778;48.236;9.894;2023-07-13T06:59:54;4.40;;;2.30;;
25988;SDS011;13778;48.236;9.894;2023-07-13T07:02:44;3.17;;;1.88;;
25988;SDS011;13778;48.236;9.894;2023-07-13T07:05:35;8.43;;;2.28;;
25988;SDS011;13778;48.236;9.894;2023-07-13T07:08:27;10.15;;;2.40;;
25988;SDS011;13778;48.236;9.894;2023-07-13T07:14:07;4.85;;;2.95;;
25988;SDS011;13778;48.236;9.894;2023-07-13T07:16:58;10.15;;;2.50;;
25988;SDS011;13778;48.236;9.894;2023-07-13T07:19:48;8.20;;;2.15;;
25988;SDS011;13778;48.236;9.894;2023-07-13T07:22:40;5.57;;;3.05;;
25988;SDS011;13778;48.236;9.894;2023-07-13T07:25:31;5.90;;;2.28;;
25988;SDS011;13778;48.236;9.894;2023-07-13T07:28:24;7.32;;;2.33;;
25988;SDS011;13778;48.236;9.894;2023-07-13T07:31:14;5.57;;;2.10;;
25988;SDS011;13778;48.236;9.894;2023-07-13T07:34:04;5.70;;;2.22;;
25988;SDS011;13778;48.236;9.894;2023-07-13T07:36:59;9.40;;;2.17;;
25988;SDS011;13778;48.236;9.894;2023-07-13T07:39:49;3.92;;;2.20;;
25988;SDS011;13778;48.236;9.894;2023-07-13T07:42:41;3.20;;;1.95;;
25988;SDS011;13778;48.236;9.894;2023-07-13T07:45:31;6.13;;;2.60;;
25988;SDS011;13778;48.236;9.894;2023-07-13T07:48:22;3.65;;;2.40;;
25988;SDS011;13778;48.236;9.894;2023-07-13T07:51:12;3.50;;;1.90;;
25988;SDS011;13778;48.236;9.894;2023-07-13T07:54:03;7.22;;;1.90;;
25988;SDS011;13778;48.236;9.894;2023-07-13T07:56:53;6.25;;;1.73;;
25988;SDS011;13778;48.236;9.894;2023-07-13T07:59:45;6.60;;;2.03;;
25988;SDS011;13778;48.236;9.894;2023-07-13T08:02:37;8.20;;;2.22;;
25988;SDS011;13778;48.236;9.894;2023-07-13T08:05:27;3.65;;;1.90;;
25988;SDS011;13778;48.236;9.894;2023-07-13T08:08:18;4.20;;;2.33;;
25988;SDS011;13778;48.236;9.894;2023-07-13T08:11:09;2.70;;;1.75;;
25988;SDS011;13778;48.236;9.894;2023-07-13T08:16:57;3.00;;;1.75;;
25988;SDS011;13778;48.236;9.894;2023-07-13T08:19:47;10.23;;;2.47;;
25988;SDS011;13778;48.236;9.894;2023-07-13T08:22:38;5.53;;;1.95;;
25988;SDS011;13778;48.236;9.894;2023-07-13T08:25:28;5.13;;;1.75;;
25988;SDS011;13778;48.236;9.894;2023-07-13T08:28:19;4.95;;;1.70;;
25988;SDS011;13778;48.236;9.894;2023-07-13T08:31:09;4.88;;;2.05;;
25988;SDS011;13778;48.236;9.894;2023-07-13T08:34:01;4.30;;;1.70;;
25988;SDS011;13778;48.236;9.894;2023-07-13T08:39:42;6.28;;;2.20;;
25988;SDS011;13778;48.236;9.894;2023-07-13T08:42:33;4.07;;;1.73;;
25988;SDS011;13778;48.236;9.894;2023-07-13T08:45:28;8.65;;;2.25;;
25988;SDS011;13778;48.236;9.894;2023-07-13T08:48:23;3.05;;;1.98;;
25988;SDS011;13778;48.236;9.894;2023-07-13T08:51:23;4.45;;;1.88;;
25988;SDS011;13778;48.236;9.894;2023-07-13T08:54:19;3.95;;;1.50;;
25988;SDS011;13778;48.236;9.894;2023-07-13T08:57:13;4.68;;;2.15;;
25988;SDS011;13778;48.236;9.894;2023-07-13T09:00:04;6.55;;;2.38;;
25988;SDS011;13778;48.236;9.894;2023-07-13T09:02:56;6.07;;;1.88;;
25988;SDS011;13778;48.236;9.894;2023-07-13T09:05:48;6.40;;;2.13;;
25988;SDS011;13778;48.236;9.894;2023-07-13T09:08:45;4.25;;;1.63;;
25988;SDS011;13778;48.236;9.894;2023-07-13T09:11:42;8.70;;;1.98;;
25988;SDS011;13778;48.236;9.894;2023-07-13T09:14:41;8.82;;;2.00;;
25988;SDS011;13778;48.236;9.894;2023-07-13T09:17:32;3.47;;;1.75;;
25988;SDS011;13778;48.236;9.894;2023-07-13T09:20:25;6.38;;;1.83;;
25988;SDS011;13778;48.236;9.894;2023-07-13T09:23:17;6.80;;;2.50;;
25988;SDS011;13778;48.236;9.894;2023-07-13T09:26:11;8.18;;;2.45;;
25988;SDS011;13778;48.236;9.894;2023-07-13T09:29:03;5.03;;;1.83;;
25988;SDS011;13778;48.236;9.894;2023-07-13T09:32:01;3.80;;;1.30;;
25988;SDS011;13778;48.236;9.894;2023-07-13T09:34:52;6.88;;;1.95;;
25988;SDS011;13778;48.236;9.894;2023-07-13T09:37:43;6.45;;;2.00;;
25988;SDS011;13778;48.236;9.894;2023-07-13T09:40:36;7.70;;;2.17;;
25988;SDS011;13778;48.236;9.894;2023-07-13T09:43:30;5.90;;;1.55;;
25988;SDS011;13778;48.236;9.894;2023-07-13T09:49:11;3.67;;;1.70;;
25988;SDS011;13778;48.236;9.894;2023-07-13T09:52:02;14.43;;;2.00;;
25988;SDS011;13778;48.236;9.894;2023-07-13T09:54:54;10.07;;;1.98;;
25988;SDS011;13778;48.236;9.894;2023-07-13T09:57:48;2.35;;;1.50;;
25988;SDS011;13778;48.236;9.894;2023-07-13T10:00:41;5.45;;;1.40;;
25988;SDS011;13778;48.236;9.894;2023-07-13T10:03:32;5.00;;;1.95;;
25988;SDS011;13778;48.236;9.894;2023-07-13T10:06:26;6.22;;;1.70;;
25988;SDS011;13778;48.236;9.894;2023-07-13T10:09:17;6.88;;;1.63;;
25988;SDS011;13778;48.236;9.894;2023-07-13T10:12:12;5.47;;;2.03;;
25988;SDS011;13778;48.236;9.894;2023-07-13T10:15:03;4.22;;;1.77;;
25988;SDS011;13778;48.236;9.894;2023-07-13T10:17:57;2.70;;;1.73;;
25988;SDS011;13778;48.236;9.894;2023-07-13T10:23:38;6.25;;;1.50;;
25988;SDS011;13778;48.236;9.894;2023-07-13T10:26:29;3.50;;;1.60;;
25988;SDS011;13778;48.236;9.894;2023-07-13T10:29:21;3.40;;;1.60;;
25988;SDS011;13778;48.236;9.894;2023-07-13T10:32:12;5.82;;;1.65;;
25988;SDS011;13778;48.236;9.894;2023-07-13T10:35:05;5.95;;;1.90;;
25988;SDS011;13778;48.236;9.894;2023-07-13T10:38:00;3.60;;;1.60;;
25988;SDS011;13778;48.236;9.894;2023-07-13T10:40:56;3.17;;;1.70;;
25988;SDS011;13778;48.236;9.894;2023-07-13T10:43:47;5.18;;;1.42;;
25988;SDS011;13778;48.236;9.894;2023-07-13T10:46:39;12.52;;;2.45;;
25988;SDS011;13778;48.236;9.894;2023-07-13T10:49:31;5.00;;;1.80;;
25988;SDS011;13778;48.236;9.894;2023-07-13T10:52:42;3.78;;;1.20;;
25988;SDS011;13778;48.236;9.894;2023-07-13T10:55:36;6.97;;;1.52;;
25988;SDS011;13778;48.236;9.894;2023-07-13T10:58:32;6.80;;;2.25;;
25988;SDS011;13778;48.236;9.894;2023-07-13T11:01:22;5.45;;;1.75;;
25988;SDS011;13778;48.236;9.894;2023-07-13T11:04:16;1.92;;;1.48;;
25988;SDS011;13778;48.236;9.894;2023-07-13T11:07:10;5.60;;;1.77;;
25988;SDS011;13778;48.236;9.894;2023-07-13T11:10:04;2.50;;;1.30;;
25988;SDS011;13778;48.236;9.894;2023-07-13T11:12:55;1.58;;;1.48;;
25988;SDS011;13778;48.236;9.894;2023-07-13T11:15:47;7.13;;;1.58;;
25988;SDS011;13778;48.236;9.894;2023-07-13T11:18:38;5.03;;;1.48;;
25988;SDS011;13778;48.236;9.894;2023-07-13T11:21:29;6.65;;;2.10;;
25988;SDS011;13778;48.236;9.894;2023-07-13T11:24:20;2.33;;;1.88;;
25988;SDS011;13778;48.236;9.894;2023-07-13T11:27:18;5.30;;;1.50;;
25988;SDS011;13778;48.236;9.894;2023-07-13T11:30:19;9.13;;;2.23;;
25988;SDS011;13778;48.236;9.894;2023-07-13T11:33:12;4.65;;;1.73;;
25988;SDS011;13778;48.236;9.894;2023-07-13T11:36:03;6.07;;;1.20;;
25988;SDS011;13778;48.236;9.894;2023-07-13T11:38:59;3.63;;;1.33;;
25988;SDS011;13778;48.236;9.894;2023-07-13T11:41:51;7.60;;;1.80;;
25988;SDS011;13778;48.236;9.894;2023-07-13T11:47:33;4.25;;;1.70;;
25988;SDS011;13778;48.236;9.894;2023-07-13T11:50:24;8.13;;;1.90;;
25988;SDS011;13778;48.236;9.894;2023-07-13T11:53:14;7.57;;;1.90;;
25988;SDS011;13778;48.236;9.894;2023-07-13T11:56:05;6.63;;;1.80;;
25988;SDS011;13778;48.236;9.894;2023-07-13T11:58:56;2.67;;;1.33;;
25988;SDS011;13778;48.236;9.894;2023-07-13T12:01:49;5.78;;;1.35;;
25988;SDS011;13778;48.236;9.894;2023-07-13T12:04:43;3.35;;;1.40;;
25988;SDS011;13778;48.236;9.894;2023-07-13T12:07:33;5.30;;;2.00;;
25988;SDS011;13778;48.236;9.894;2023-07-13T12:10:25;2.03;;;1.35;;
25988;SDS011;13778;48.236;9.894;2023-07-13T12:13:18;2.88;;;1.58;;
25988;SDS011;13778;48.236;9.894;2023-07-13T12:16:12;3.17;;;1.95;;
25988;SDS011;13778;48.236;9.894;2023-07-13T12:19:09;4.60;;;2.10;;
25988;SDS011;13778;48.236;9.894;2023-07-13T12:22:09;5.40;;;1.70;;
25988;SDS011;13778;48.236;9.894;2023-07-13T12:25:01;4.93;;;1.92;;
25988;SDS011;13778;48.236;9.894;2023-07-13T12:27:52;6.45;;;1.70;;
25988;SDS011;13778;48.236;9.894;2023-07-13T12:30:42;4.35;;;1.52;;
25988;SDS011;13778;48.236;9.894;2023-07-13T12:33:39;2.65;;;1.55;;
25988;SDS011;13778;48.236;9.894;2023-07-13T12:36:34;2.47;;;1.50;;
25988;SDS011;13778;48.236;9.894;2023-07-13T12:39:35;2.60;;;1.70;;
25988;SDS011;13778;48.236;9.894;2023-07-13T12:42:26;5.60;;;1.85;;
25988;SDS011;13778;48.236;9.894;2023-07-13T12:45:18;6.68;;;1.67;;
25988;SDS011;13778;48.236;9.894;2023-07-13T12:48:12;4.68;;;1.88;;
25988;SDS011;13778;48.236;9.894;2023-07-13T12:51:04;3.35;;;2.28;;
25988;SDS011;13778;48.236;9.894;2023-07-13T12:53:56;4.78;;;1.90;;
25988;SDS011;13778;48.236;9.894;2023-07-13T12:56:50;8.57;;;2.15;;
25988;SDS011;13778;48.236;9.894;2023-07-13T12:59:41;4.18;;;1.65;;
25988;SDS011;13778;48.236;9.894;2023-07-13T13:02:32;4.93;;;1.95;;
25988;SDS011;13778;48.236;9.894;2023-07-13T13:05:25;3.10;;;1.80;;
25988;SDS011;13778;48.236;9.894;2023-07-13T13:08:15;17.60;;;3.47;;
25988;SDS011;13778;48.236;9.894;2023-07-13T13:11:06;2.60;;;1.90;;
25988;SDS011;13778;48.236;9.894;2023-07-13T13:13:58;4.10;;;1.33;;
25988;SDS011;13778;48.236;9.894;2023-07-13T13:16:49;3.17;;;1.60;;
25988;SDS011;13778;48.236;9.894;2023-07-13T13:19:39;4.35;;;1.92;;
25988;SDS011;13778;48.236;9.894;2023-07-13T13:22:30;3.13;;;1.70;;
25988;SDS011;13778;48.236;9.894;2023-07-13T13:25:21;3.75;;;1.58;;
25988;SDS011;13778;48.236;9.894;2023-07-13T13:28:13;6.33;;;1.67;;
25988;SDS011;13778;48.236;9.894;2023-07-13T13:31:05;7.88;;;1.60;;
25988;SDS011;13778;48.236;9.894;2023-07-13T13:33:56;4.55;;;1.83;;
25988;SDS011;13778;48.236;9.894;2023-07-13T13:36:46;3.30;;;1.45;;
25988;SDS011;13778;48.236;9.894;2023-07-13T13:39:37;5.40;;;1.60;;
25988;SDS011;13778;48.236;9.894;2023-07-13T13:42:28;3.22;;;1.77;;
25988;SDS011;13778;48.236;9.894;2023-07-13T13:45:18;6.88;;;2.33;;
25988;SDS011;13778;48.236;9.894;2023-07-13T13:48:14;7.65;;;1.77;;
25988;SDS011;13778;48.236;9.894;2023-07-13T13:51:13;4.57;;;1.77;;
25988;SDS011;13778;48.236;9.894;2023-07-13T13:54:04;3.88;;;1.40;;
25988;SDS011;13778;48.236;9.894;2023-07-13T13:56:55;5.05;;;1.80;;
25988;SDS011;13778;48.236;9.894;2023-07-13T13:59:48;9.05;;;2.00;;
25988;SDS011;13778;48.236;9.894;2023-07-13T14:02:38;4.22;;;1.70;;
25988;SDS011;13778;48.236;9.894;2023-07-13T14:05:30;6.63;;;2.13;;
25988;SDS011;13778;48.236;9.894;2023-07-13T14:08:21;8.65;;;1.90;;
25988;SDS011;13778;48.236;9.894;2023-07-13T14:11:12;4.57;;;1.73;;
25988;SDS011;13778;48.236;9.894;2023-07-13T14:14:02;6.57;;;1.63;;
25988;SDS011;13778;48.236;9.894;2023-07-13T14:16:53;6.90;;;2.17;;
25988;SDS011;13778;48.236;9.894;2023-07-13T14:19:45;6.03;;;1.70;;
25988;SDS011;13778;48.236;9.894;2023-07-13T14:22:37;6.80;;;2.17;;
25988;SDS011;13778;48.236;9.894;2023-07-13T14:25:28;6.20;;;2.22;;
25988;SDS011;13778;48.236;9.894;2023-07-13T14:28:19;3.95;;;1.70;;
25988;SDS011;13778;48.236;9.894;2023-07-13T14:31:10;3.55;;;1.70;;
25988;SDS011;13778;48.236;9.894;2023-07-13T14:34:01;6.07;;;2.45;;
25988;SDS011;13778;48.236;9.894;2023-07-13T14:36:51;4.13;;;2.00;;
25988;SDS011;13778;48.236;9.894;2023-07-13T14:39:44;2.05;;;1.60;;
25988;SDS011;13778;48.236;9.894;2023-07-13T14:42:34;2.40;;;1.70;;
25988;SDS011;13778;48.236;9.894;2023-07-13T14:45:25;5.45;;;1.63;;
25988;SDS011;13778;48.236;9.894;2023-07-13T14:48:16;5.03;;;1.80;;
25988;SDS011;13778;48.236;9.894;2023-07-13T14:51:08;7.35;;;2.15;;
25988;SDS011;13778;48.236;9.894;2023-07-13T14:54:01;3.75;;;1.80;;
25988;SDS011;13778;48.236;9.894;2023-07-13T14:56:53;4.18;;;1.80;;
25988;SDS011;13778;48.236;9.894;2023-07-13T14:59:44;8.65;;;2.05;;
25988;SDS011;13778;48.236;9.894;2023-07-13T15:02:35;5.57;;;1.90;;
25988;SDS011;13778;48.236;9.894;2023-07-13T15:05:27;4.95;;;2.35;;
25988;SDS011;13778;48.236;9.894;2023-07-13T15:08:19;5.63;;;1.80;;
25988;SDS011;13778;48.236;9.894;2023-07-13T15:11:09;3.20;;;2.00;;
25988;SDS011;13778;48.236;9.894;2023-07-13T15:14:02;5.78;;;2.03;;
25988;SDS011;13778;48.236;9.894;2023-07-13T15:16:54;3.65;;;1.63;;
25988;SDS011;13778;48.236;9.894;2023-07-13T15:19:44;3.42;;;1.90;;
25988;SDS011;13778;48.236;9.894;2023-07-13T15:22:35;4.22;;;1.83;;
25988;SDS011;13778;48.236;9.894;2023-07-13T15:25:26;7.43;;;2.40;;
25988;SDS011;13778;48.236;9.894;2023-07-13T15:28:16;6.73;;;2.43;;
25988;SDS011;13778;48.236;9.894;2023-07-13T15:31:14;4.28;;;1.83;;
25988;SDS011;13778;48.236;9.894;2023-07-13T15:34:09;7.63;;;1.77;;
25988;SDS011;13778;48.236;9.894;2023-07-13T15:37:01;5.32;;;1.95;;
25988;SDS011;13778;48.236;9.894;2023-07-13T15:39:51;4.15;;;1.88;;
25988;SDS011;13778;48.236;9.894;2023-07-13T15:42:42;4.85;;;1.90;;
25988;SDS011;13778;48.236;9.894;2023-07-13T15:45:33;4.88;;;1.40;;
25988;SDS011;13778;48.236;9.894;2023-07-13T15:48:25;5.28;;;1.90;;
25988;SDS011;13778;48.236;9.894;2023-07-13T15:51:18;3.90;;;1.73;;
25988;SDS011;13778;48.236;9.894;2023-07-13T15:54:11;4.28;;;1.70;;
25988;SDS011;13778;48.236;9.894;2023-07-13T15:57:03;4.65;;;1.98;;
25988;SDS011;13778;48.236;9.894;2023-07-13T15:59:55;3.83;;;1.88;;
25988;SDS011;13778;48.236;9.894;2023-07-13T16:02:46;3.75;;;1.65;;
25988;SDS011;13778;48.236;9.894;2023-07-13T16:05:38;4.80;;;1.70;;
25988;SDS011;13778;48.236;9.894;2023-07-13T16:11:20;3.22;;;1.67;;
25988;SDS011;13778;48.236;9.894;2023-07-13T16:14:11;3.83;;;1.95;;
25988;SDS011;13778;48.236;9.894;2023-07-13T16:17:03;5.38;;;1.92;;
25988;SDS011;13778;48.236;9.894;2023-07-13T16:19:54;3.45;;;1.83;;
25988;SDS011;13778;48.236;9.894;2023-07-13T16:22:48;4.40;;;1.83;;
25988;SDS011;13778;48.236;9.894;2023-07-13T16:25:39;4.22;;;1.60;;
25988;SDS011;13778;48.236;9.894;2023-07-13T16:31:21;4.38;;;1.60;;
25988;SDS011;13778;48.236;9.894;2023-07-13T16:34:12;3.38;;;1.80;;
25988;SDS011;13778;48.236;9.894;2023-07-13T16:37:03;5.68;;;1.88;;
25988;SDS011;13778;48.236;9.894;2023-07-13T16:40:01;6.22;;;1.98;;
25988;SDS011;13778;48.236;9.894;2023-07-13T16:42:57;2.65;;;1.70;;
25988;SDS011;13778;48.236;9.894;2023-07-13T16:45:48;2.33;;;1.60;;
25988;SDS011;13778;48.236;9.894;2023-07-13T16:48:39;2.47;;;1.63;;
25988;SDS011;13778;48.236;9.894;2023-07-13T16:51:30;2.53;;;1.88;;
25988;SDS011;13778;48.236;9.894;2023-07-13T16:54:21;4.18;;;2.03;;
25988;SDS011;13778;48.236;9.894;2023-07-13T16:57:13;3.45;;;2.13;;
25988;SDS011;13778;48.236;9.894;2023-07-13T17:00:05;4.70;;;1.80;;
25988;SDS011;13778;48.236;9.894;2023-07-13T17:03:05;6.87;;;2.00;;
25988;SDS011;13778;48.236;9.894;2023-07-13T17:05:56;3.40;;;2.25;;
25988;SDS011;13778;48.236;9.894;2023-07-13T17:08:48;5.43;;;2.25;;
25988;SDS011;13778;48.236;9.894;2023-07-13T17:11:40;5.60;;;1.80;;
25988;SDS011;13778;48.236;9.894;2023-07-13T17:14:31;4.55;;;1.90;;
25988;SDS011;13778;48.236;9.894;2023-07-13T17:17:25;3.88;;;1.63;;
25988;SDS011;13778;48.236;9.894;2023-07-13T17:20:19;10.02;;;2.40;;
25988;SDS011;13778;48.236;9.894;2023-07-13T17:23:13;3.95;;;1.95;;
25988;SDS011;13778;48.236;9.894;2023-07-13T17:26:05;3.97;;;1.85;;
25988;SDS011;13778;48.236;9.894;2023-07-13T17:28:55;2.78;;;1.70;;
25988;SDS011;13778;48.236;9.894;2023-07-13T17:31:47;2.67;;;1.70;;
25988;SDS011;13778;48.236;9.894;2023-07-13T17:34:41;4.30;;;2.40;;
25988;SDS011;13778;48.236;9.894;2023-07-13T17:37:34;3.90;;;1.80;;
25988;SDS011;13778;48.236;9.894;2023-07-13T17:40:25;3.00;;;2.00;;
25988;SDS011;13778;48.236;9.894;2023-07-13T17:43:15;15.80;;;2.40;;
25988;SDS011;13778;48.236;9.894;2023-07-13T17:46:09;5.15;;;1.98;;
25988;SDS011;13778;48.236;9.894;2023-07-13T17:49:02;3.70;;;1.70;;
25988;SDS011;13778;48.236;9.894;2023-07-13T17:51:54;10.18;;;2.13;;
25988;SDS011;13778;48.236;9.894;2023-07-13T17:54:45;3.40;;;1.75;;
25988;SDS011;13778;48.236;9.894;2023-07-13T17:57:36;5.63;;;2.30;;
25988;SDS011;13778;48.236;9.894;2023-07-13T18:00:29;5.20;;;2.05;;
25988;SDS011;13778;48.236;9.894;2023-07-13T18:03:25;6.55;;;2.47;;